Time;durP1;ratioP1;P1;durP2;ratioP2;P2;SDS_P1;SDS_P2;PMS_P1;PMS_P2;Temp;Humidity;BMP_temperature;BMP_pressure;BME280_temperature;BME280_humidity;BME280_pressure;Samples;Min_cycle;Max_cycle;Signal;HPM_P1;HPM_P2
2023/01/17 00:00:28;;;;;;;;;;;;;;;16.40;48.95;99938.16;5059235;28;1044;-41
2023/01/17 00:02:53;;;;;;;;;;;;;;;15.88;50.48;99928.88;5069834;28;2083;-47
2023/01/17 00:10:47;;;;;;;;;;;;;;;16.39;49.16;99924.75;5066466;28;1079;-46
2023/01/17 00:13:12;;;;;;;;;;;;;;;17.55;46.22;99911.53;5058764;28;1012;-47
2023/01/17 00:15:38;;;;;;;;;;;;;;;16.43;49.04;99921.09;5058858;28;1028;-46
2023/01/17 00:18:04;;;;;;;;;;;;;;;15.94;50.14;99913.19;5058334;28;1099;-41
2023/01/17 00:26:01;;;;;;;;;;;;;;;17.12;47.32;99905.38;5074226;28;1035;-45
2023/01/17 01:34:55;;;;;;;;;;;;;;;16.11;50.19;99888.06;5074830;28;1247;-47
2023/01/17 01:37:20;;;;;;;;;;;;;;;17.31;47.07;99878.72;5077142;28;1265;-48
2023/01/17 01:39:45;;;;;;;;;;;;;;;16.27;49.67;99870.31;5076785;28;1241;-47
2023/01/17 01:42:14;;;;;;;;;;;;;;;15.87;50.34;99886.13;5076855;28;1368;-47
2023/01/17 01:44:46;;;;;;;;;;;;;;;15.65;51.16;99875.59;5076820;28;1914;-47
2023/01/17 01:47:27;;;;;;;;;;;;;;;16.90;48.15;99863.69;5074706;28;1222;-50
2023/01/17 01:49:52;;;;;;;;;;;;;;;16.73;48.20;99858.69;5076466;28;1338;-47
2023/01/17 01:52:18;;;;;;;;;;;;;;;16.04;50.29;99859.03;5074040;28;1261;-49
2023/01/17 01:54:46;;;;;;;;;;;;;;;15.76;50.67;99865.38;5076840;28;1258;-46
2023/01/17 01:57:11;;;;;;;;;;;;;;;15.64;51.10;99866.59;5057040;28;1285;-49
2023/01/17 01:59:38;;;;;;;;;;;;;;;17.21;47.29;99859.66;5058877;28;1299;-48
2023/01/17 02:02:03;;;;;;;;;;;;;;;16.57;48.72;99862.78;5076387;28;1305;-48
2023/01/17 02:04:28;;;;;;;;;;;;;;;15.99;50.36;99867.34;5076405;28;1992;-47
2023/01/17 02:07:14;;;;;;;;;;;;;;;15.72;51.08;99852.25;5075901;28;1269;-49
2023/01/17 02:09:39;;;;;;;;;;;;;;;16.26;49.72;99849.47;5048145;28;1052;-51
2023/01/17 02:12:05;;;;;;;;;;;;;;;17.36;46.92;99851.16;5075260;28;1234;-46
2023/01/17 02:14:30;;;;;;;;;;;;;;;16.28;49.35;99847.22;5058856;28;1250;-50
2023/01/17 02:17:14;;;;;;;;;;;;;;;15.86;50.55;99851.56;5076534;28;1223;-46
2023/01/17 02:20:12;;;;;;;;;;;;;;;15.63;51.28;99840.28;5075153;28;1317;-49
2023/01/17 02:22:40;;;;;;;;;;;;;;;16.85;48.40;99827.22;5010729;28;1992;-46
2023/01/17 02:25:06;;;;;;;;;;;;;;;17.33;46.79;99842.69;5076492;28;1225;-46
2023/01/17 02:27:40;;;;;;;;;;;;;;;16.30;49.68;99838.69;5076259;28;1242;-46
2023/01/17 02:30:09;;;;;;;;;;;;;;;15.87;50.50;99836.75;5076314;28;1410;-47
2023/01/17 02:32:36;;;;;;;;;;;;;;;15.77;51.12;99828.59;5074027;28;1242;-45
2023/01/17 02:35:21;;;;;;;;;;;;;;;17.29;47.16;99825.97;5055683;28;1255;-46
2023/01/17 02:37:57;;;;;;;;;;;;;;;16.16;49.85;99822.16;5076073;28;1192;-45
2023/01/17 02:40:43;;;;;;;;;;;;;;;15.80;50.83;99820.66;5053839;28;1259;-47
2023/01/17 02:43:12;;;;;;;;;;;;;;;16.05;50.22;99814.06;5074687;28;1971;-49
2023/01/17 02:45:38;;;;;;;;;;;;;;;17.24;47.30;99812.34;5053354;28;1306;-50
2023/01/17 02:48:03;;;;;;;;;;;;;;;16.22;49.71;99804.53;5075798;28;1363;-49
2023/01/17 02:50:44;;;;;;;;;;;;;;;15.82;50.59;99802.00;5056542;28;1302;-48
2023/01/17 02:53:12;;;;;;;;;;;;;;;16.50;49.27;99791.78;5056125;28;1194;-48
2023/01/17 02:55:44;;;;;;;;;;;;;;;17.12;47.27;99784.53;5048075;28;1195;-48
2023/01/17 02:58:14;;;;;;;;;;;;;;;16.18;49.73;99785.09;5063560;28;935;-45
2023/01/17 03:00:58;;;;;;;;;;;;;;;15.98;50.44;99788.13;5062081;28;1060;-46
2023/01/17 03:03:29;;;;;;;;;;;;;;;17.55;46.44;99798.03;5045066;28;1902;-48
2023/01/17 03:05:54;;;;;;;;;;;;;;;16.48;48.95;99796.75;5058761;28;1106;-47
2023/01/17 03:08:20;;;;;;;;;;;;;;;15.97;50.61;99803.72;5062477;28;1143;-49
2023/01/17 03:10:45;;;;;;;;;;;;;;;17.31;47.27;99801.78;5066358;28;922;-48
2023/01/17 03:13:11;;;;;;;;;;;;;;;16.52;49.03;99803.28;5058399;28;1139;-47
2023/01/17 03:15:37;;;;;;;;;;;;;;;16.09;50.04;99795.09;5067167;28;1154;-43
2023/01/17 03:18:03;;;;;;;;;;;;;;;15.79;51.01;99788.03;5071982;28;1207;-46
2023/01/17 03:20:29;;;;;;;;;;;;;;;15.66;51.14;99795.84;5066780;28;1167;-44
2023/01/17 03:22:54;;;;;;;;;;;;;;;16.88;48.32;99782.69;5059879;28;1906;-47
2023/01/17 03:25:20;;;;;;;;;;;;;;;17.28;47.15;99791.38;5070282;28;1134;-48
2023/01/17 03:27:45;;;;;;;;;;;;;;;16.28;49.57;99788.81;5062315;28;1013;-48
2023/01/17 03:30:11;;;;;;;;;;;;;;;15.86;50.81;99785.78;5080115;28;1075;-45
2023/01/17 03:32:36;;;;;;;;;;;;;;;16.64;48.77;99797.34;5066488;28;1163;-46
2023/01/17 03:35:01;;;;;;;;;;;;;;;17.14;47.55;99796.03;5079072;28;860;-45
2023/01/17 03:37:27;;;;;;;;;;;;;;;16.21;49.71;99792.72;5061899;28;1107;-47
2023/01/17 03:39:52;;;;;;;;;;;;;;;15.84;50.69;99785.28;5077819;28;1128;-45
2023/01/17 03:42:18;;;;;;;;;;;;;;;15.69;51.10;99787.03;5066301;28;1066;-45
2023/01/17 03:44:43;;;;;;;;;;;;;;;16.94;48.00;99792.50;5068839;28;1990;-47
2023/01/17 03:47:10;;;;;;;;;;;;;;;17.12;47.53;99784.53;5077000;28;905;-46
2023/01/17 03:49:39;;;;;;;;;;;;;;;16.19;49.72;99775.75;5079437;28;1059;-46
2023/01/17 03:52:04;;;;;;;;;;;;;;;15.87;50.75;99784.69;5061542;28;1038;-44
2023/01/17 03:54:30;;;;;;;;;;;;;;;15.66;51.12;99781.34;5059295;28;1063;-45
2023/01/17 03:56:55;;;;;;;;;;;;;;;16.69;48.86;99778.06;5063246;28;1036;-46
2023/01/17 03:59:21;;;;;;;;;;;;;;;17.08;47.35;99782.38;5079866;28;1094;-49
2023/01/17 04:01:46;;;;;;;;;;;;;;;16.15;49.77;99782.13;5061191;28;1167;-46
2023/01/17 04:04:12;;;;;;;;;;;;;;;15.81;50.75;99789.41;5059208;28;1909;-48
2023/01/17 04:06:37;;;;;;;;;;;;;;;15.73;51.01;99788.09;5076601;28;1079;-47
2023/01/17 04:09:03;;;;;;;;;;;;;;;17.32;47.23;99789.66;5078799;28;1036;-45
2023/01/17 04:11:28;;;;;;;;;;;;;;;16.42;49.18;99797.94;5078805;28;1063;-45
2023/01/17 04:13:54;;;;;;;;;;;;;;;15.90;50.41;99797.78;5079269;28;974;-48
2023/01/17 04:16:19;;;;;;;;;;;;;;;15.74;51.22;99797.94;5074335;28;1636;-47
2023/01/17 04:18:44;;;;;;;;;;;;;;;17.35;47.13;99797.31;5051911;28;1227;-49
2023/01/17 04:21:10;;;;;;;;;;;;;;;16.41;49.39;99788.06;5078700;28;1066;-46
2023/01/17 04:23:35;;;;;;;;;;;;;;;15.96;50.43;99793.88;5078873;28;1905;-47
2023/01/17 04:26:02;;;;;;;;;;;;;;;15.71;51.00;99790.31;5078409;28;1118;-47
2023/01/17 04:28:28;;;;;;;;;;;;;;;16.55;49.05;99791.72;5078992;28;1087;-48
2023/01/17 04:30:56;;;;;;;;;;;;;;;17.06;47.52;99798.34;5068003;28;1063;-50
2023/01/17 04:33:21;;;;;;;;;;;;;;;16.14;50.07;99796.94;5067814;28;1031;-53
2023/01/17 04:35:47;;;;;;;;;;;;;;;15.82;50.81;99785.56;5076176;28;1223;-53
2023/01/17 04:38:12;;;;;;;;;;;;;;;15.73;51.28;99793.56;5078618;28;1128;-48
2023/01/17 04:40:37;;;;;;;;;;;;;;;17.37;47.13;99795.06;5063276;28;1166;-44
2023/01/17 04:43:03;;;;;;;;;;;;;;;16.74;48.39;99802.66;5078664;28;1980;-43
2023/01/17 04:45:28;;;;;;;;;;;;;;;16.10;50.19;99795.91;5063066;28;1194;-45
2023/01/17 04:47:54;;;;;;;;;;;;;;;15.80;50.97;99792.44;5078762;28;1030;-42
2023/01/17 04:50:19;;;;;;;;;;;;;;;15.60;51.20;99809.88;5074481;28;1056;-47
2023/01/17 04:52:44;;;;;;;;;;;;;;;17.10;47.70;99802.13;5069166;28;1143;-45
2023/01/17 04:55:10;;;;;;;;;;;;;;;16.32;49.60;99807.13;5061094;28;1214;-43
2023/01/17 04:57:35;;;;;;;;;;;;;;;15.91;50.84;99807.66;5074888;28;1531;-45
2023/01/17 05:00:01;;;;;;;;;;;;;;;16.34;49.78;99821.38;5075332;28;1134;-45
2023/01/17 05:02:26;;;;;;;;;;;;;;;17.09;47.78;99810.66;5076355;28;1536;-48
2023/01/17 05:04:52;;;;;;;;;;;;;;;16.17;49.88;99801.84;5078129;28;1968;-48
2023/01/17 05:07:17;;;;;;;;;;;;;;;15.81;50.82;99805.03;5078016;28;912;-47
2023/01/17 05:09:42;;;;;;;;;;;;;;;15.65;51.28;99804.34;5064495;28;1154;-44
2023/01/17 05:12:08;;;;;;;;;;;;;;;17.23;47.63;99792.28;5077982;28;1067;-46
2023/01/17 05:14:33;;;;;;;;;;;;;;;16.57;48.78;99797.72;5074435;28;1218;-46
2023/01/17 05:16:59;;;;;;;;;;;;;;;15.99;50.33;99801.53;5067666;28;1156;-42
2023/01/17 05:19:24;;;;;;;;;;;;;;;15.79;50.97;99801.75;5061291;28;1386;-54
2023/01/17 05:21:50;;;;;;;;;;;;;;;17.40;46.92;99793.63;5072752;28;1450;-53
2023/01/17 05:24:15;;;;;;;;;;;;;;;16.52;49.21;99795.06;5071105;28;1967;-56
2023/01/17 05:26:41;;;;;;;;;;;;;;;16.02;50.46;99795.44;5074937;28;1084;-53
2023/01/17 05:29:07;;;;;;;;;;;;;;;15.73;51.23;99807.28;5077831;28;1115;-55
2023/01/17 05:31:33;;;;;;;;;;;;;;;15.57;51.44;99803.88;5073388;28;1265;-55
2023/01/17 05:33:58;;;;;;;;;;;;;;;15.50;51.91;99810.81;5060894;28;1155;-51
2023/01/17 05:36:24;;;;;;;;;;;;;;;17.14;47.54;99818.00;5077441;28;1187;-55
2023/01/17 05:38:49;;;;;;;;;;;;;;;16.89;48.19;99817.31;5069494;28;1051;-55
2023/01/17 05:41:15;;;;;;;;;;;;;;;16.05;50.14;99830.50;5077363;28;1115;-53
2023/01/17 05:43:40;;;;;;;;;;;;;;;16.23;50.10;99828.13;5077253;28;1978;-55
2023/01/17 05:46:05;;;;;;;;;;;;;;;17.38;46.97;99839.84;5063115;28;1079;-56
2023/01/17 05:48:31;;;;;;;;;;;;;;;16.33;49.67;99832.66;5077702;28;1206;-55
2023/01/17 05:50:56;;;;;;;;;;;;;;;15.94;50.63;99847.38;5059137;28;1043;-57
2023/01/17 05:53:22;;;;;;;;;;;;;;;15.70;51.23;99838.00;5068295;28;1036;-56
2023/01/17 05:55:48;;;;;;;;;;;;;;;16.16;50.42;99849.56;5063664;28;1080;-56
2023/01/17 05:58:15;;;;;;;;;;;;;;;17.31;47.12;99847.69;5065906;28;1187;-57
2023/01/17 06:00:40;;;;;;;;;;;;;;;16.22;49.74;99848.41;5061687;28;1147;-56
2023/01/17 06:03:06;;;;;;;;;;;;;;;15.86;50.76;99852.38;5065390;28;1965;-53
2023/01/17 06:05:31;;;;;;;;;;;;;;;16.28;49.88;99851.91;5057285;28;1159;-55
2023/01/17 06:07:57;;;;;;;;;;;;;;;17.06;47.75;99849.72;5068616;28;1028;-55
2023/01/17 06:10:22;;;;;;;;;;;;;;;16.20;49.90;99847.88;5062318;28;1171;-54
2023/01/17 06:12:48;;;;;;;;;;;;;;;15.81;50.95;99857.09;5076087;28;1078;-54
2023/01/17 06:15:13;;;;;;;;;;;;;;;15.80;51.09;99847.28;5074612;28;1259;-55
2023/01/17 06:17:39;;;;;;;;;;;;;;;17.35;47.23;99844.03;5074368;28;1728;-53
2023/01/17 06:20:05;;;;;;;;;;;;;;;16.45;49.22;99849.47;5076223;28;1211;-53
2023/01/17 06:22:31;;;;;;;;;;;;;;;17.21;47.54;99845.91;5075040;28;1068;-45
2023/01/17 06:24:56;;;;;;;;;;;;;;;16.05;50.07;99849.72;5077215;28;1910;-46
2023/01/17 06:27:21;;;;;;;;;;;;;;;15.72;49.83;99852.25;5067299;28;1142;-51
2023/01/17 06:29:47;;;;;;;;;;;;;;;15.50;49.26;99843.69;5063227;28;1138;-48
2023/01/17 06:32:13;;;;;;;;;;;;;;;15.37;48.89;99835.03;5060821;28;1300;-53
2023/01/17 06:34:38;;;;;;;;;;;;;;;15.32;48.14;99835.09;5072470;28;1334;-49
2023/01/17 06:37:04;;;;;;;;;;;;;;;15.16;48.19;99844.53;5075606;28;1163;-50
2023/01/17 06:39:29;;;;;;;;;;;;;;;15.14;47.55;99854.97;5063941;28;1294;-48
2023/01/17 06:41:55;;;;;;;;;;;;;;;14.96;47.74;99846.34;5056697;28;1075;-52
2023/01/17 06:44:20;;;;;;;;;;;;;;;14.97;47.18;99842.50;5069209;28;1972;-53
2023/01/17 06:46:46;;;;;;;;;;;;;;;15.44;49.09;99850.34;5056476;28;1068;-52
2023/01/17 06:49:12;;;;;;;;;;;;;;;15.13;48.69;99864.28;5060936;28;1106;-53
2023/01/17 06:51:38;;;;;;;;;;;;;;;15.01;48.32;99859.16;5064844;28;1206;-48
2023/01/17 06:54:03;;;;;;;;;;;;;;;15.84;48.94;99865.56;5060582;28;1037;-54
2023/01/17 06:56:30;;;;;;;;;;;;;;;15.25;49.22;99878.44;5059406;28;1298;-52
2023/01/17 06:58:55;;;;;;;;;;;;;;;16.05;48.87;99885.34;5062908;28;1623;-52
2023/01/17 07:01:21;;;;;;;;;;;;;;;15.71;50.29;99888.16;5074738;28;1048;-50
2023/01/17 07:03:46;;;;;;;;;;;;;;;15.33;49.92;99866.03;5059121;28;1979;-51
2023/01/17 07:06:11;;;;;;;;;;;;;;;15.11;49.29;99870.06;5065628;28;1142;-50
2023/01/17 07:08:37;;;;;;;;;;;;;;;14.96;48.83;99867.44;5066560;28;1243;-48
2023/01/17 07:11:03;;;;;;;;;;;;;;;14.92;48.34;99872.66;5075410;28;1116;-51
2023/01/17 07:13:28;;;;;;;;;;;;;;;15.74;49.60;99877.44;5071774;28;1317;-52
2023/01/17 07:15:53;;;;;;;;;;;;;;;15.29;49.50;99881.41;5063736;28;1137;-49
2023/01/17 07:18:22;;;;;;;;;;;;;;;15.08;49.11;99878.00;5073067;28;1427;-56
2023/01/17 07:20:50;;;;;;;;;;;;;;;14.96;48.41;99889.34;5064839;28;1167;-55
2023/01/17 07:23:16;;;;;;;;;;;;;;;15.94;48.62;99889.31;5058277;28;1918;-53
2023/01/17 07:25:41;;;;;;;;;;;;;;;15.21;49.41;99885.59;5056045;28;1060;-55
2023/01/17 07:28:07;;;;;;;;;;;;;;;14.98;49.23;99887.13;5068537;28;1159;-55
2023/01/17 07:33:21;;;;;;;;;;;;;;;15.15;49.40;99893.03;5480716;23;7400;-48
2023/01/17 07:35:46;;;;;;;;;;;;;;;15.86;49.23;99895.44;4959330;28;1177;-49
2023/01/17 07:38:13;;;;;;;;;;;;;;;15.34;49.60;99890.41;4963375;28;1137;-52
2023/01/17 07:40:38;;;;;;;;;;;;;;;15.03;49.46;99889.81;4959624;28;1138;-49
2023/01/17 07:43:12;;;;;;;;;;;;;;;15.83;49.32;99883.13;4967480;28;1907;-52
2023/01/17 07:45:44;;;;;;;;;;;;;;;15.24;49.44;99895.97;4947933;28;2193;-49
2023/01/17 07:48:10;;;;;;;;;;;;;;;15.03;49.06;99893.38;4968001;28;1093;-50
2023/01/17 07:50:35;;;;;;;;;;;;;;;15.84;49.28;99883.97;4964776;28;1062;-50
2023/01/17 07:53:01;;;;;;;;;;;;;;;15.18;50.06;99891.63;4958457;28;1062;-49
2023/01/17 07:55:26;;;;;;;;;;;;;;;15.06;49.08;99889.25;4950880;28;2173;-51
2023/01/17 07:57:51;;;;;;;;;;;;;;;15.08;48.44;99887.03;4967079;28;2105;-48
2023/01/17 08:00:17;;;;;;;;;;;;;;;15.96;48.72;99889.84;4961459;28;1762;-52
2023/01/17 08:02:43;;;;;;;;;;;;;;;15.17;49.46;99890.81;4970404;28;1902;-48
2023/01/17 08:05:08;;;;;;;;;;;;;;;15.04;48.49;99886.00;4957282;28;1158;-56
2023/01/17 08:07:34;;;;;;;;;;;;;;;15.91;48.71;99881.69;4946028;28;2559;-52
2023/01/17 08:10:00;;;;;;;;;;;;;;;15.59;49.39;99874.84;4960049;28;892;-50
2023/01/17 08:12:25;;;;;;;;;;;;;;;15.44;49.68;99880.47;4971264;28;1106;-52
2023/01/17 08:17:20;;;;;;;;;;;;;;;15.56;49.80;99876.22;4954828;28;7003;-50
2023/01/17 08:19:48;;;;;;;;;;;;;;;15.37;49.08;99878.84;4971361;28;1118;-46
2023/01/17 08:22:14;;;;;;;;;;;;;;;15.20;48.69;99878.47;4968828;28;1053;-46
2023/01/17 08:24:40;;;;;;;;;;;;;;;15.03;48.23;99871.47;4976785;28;1906;-46
2023/01/17 08:27:07;;;;;;;;;;;;;;;16.17;48.51;99879.47;4960814;28;1379;-46
2023/01/17 08:29:33;;;;;;;;;;;;;;;15.35;49.44;99867.38;4974800;28;1062;-43
2023/01/17 08:31:58;;;;;;;;;;;;;;;15.14;49.23;99863.19;4976412;28;1098;-47
2023/01/17 08:34:25;;;;;;;;;;;;;;;15.63;49.04;99847.69;4977248;28;1098;-49
2023/01/17 08:36:53;;;;;;;;;;;;;;;15.64;49.92;99852.88;4966963;28;1093;-51
2023/01/17 08:39:19;;;;;;;;;;;;;;;15.31;49.32;99843.59;4979828;28;1222;-49
2023/01/17 08:41:45;;;;;;;;;;;;;;;15.16;49.86;99839.06;4966979;28;1037;-47
2023/01/17 08:44:10;;;;;;;;;;;;;;;15.81;49.39;99832.44;4979848;28;1973;-48
2023/01/17 08:46:38;;;;;;;;;;;;;;;15.35;49.34;99809.88;4975113;28;1101;-45
2023/01/17 08:49:04;;;;;;;;;;;;;;;15.12;48.82;99818.84;4964674;28;909;-54
2023/01/17 08:51:31;;;;;;;;;;;;;;;16.08;48.58;99826.38;4969354;28;1142;-49
2023/01/17 08:53:56;;;;;;;;;;;;;;;15.29;49.50;99838.41;4977065;28;1478;-52
2023/01/17 08:56:25;;;;;;;;;;;;;;;15.11;49.00;99831.72;4979585;28;1057;-50
2023/01/17 08:58:51;;;;;;;;;;;;;;;15.81;48.91;99846.97;4967420;28;1204;-45
2023/01/17 09:01:16;;;;;;;;;;;;;;;15.52;49.55;99831.34;4979237;28;899;-44
2023/01/17 09:03:42;;;;;;;;;;;;;;;15.18;49.03;99826.72;4966577;28;1988;-49
2023/01/17 09:06:08;;;;;;;;;;;;;;;16.17;48.52;99823.78;4977953;28;1270;-47
2023/01/17 09:08:34;;;;;;;;;;;;;;;15.42;49.32;99822.41;4959688;28;1142;-48
2023/01/17 09:11:03;;;;;;;;;;;;;;;15.48;49.36;99821.25;4973497;28;1150;-48
2023/01/17 09:13:29;;;;;;;;;;;;;;;15.89;49.29;99820.81;4973465;28;940;-45
2023/01/17 09:15:55;;;;;;;;;;;;;;;15.42;49.38;99803.22;4971563;28;1205;-44
2023/01/17 09:18:20;;;;;;;;;;;;;;;15.76;49.20;99794.91;4974114;28;1053;-48
2023/01/17 09:20:45;;;;;;;;;;;;;;;15.71;49.51;99784.00;4959587;28;1030;-47
2023/01/17 09:23:11;;;;;;;;;;;;;;;15.34;49.28;99786.31;4973159;28;1910;-47
2023/01/17 09:25:38;;;;;;;;;;;;;;;15.29;48.41;99778.16;4969584;28;915;-50
2023/01/17 09:28:04;;;;;;;;;;;;;;;16.07;48.64;99770.72;4966237;28;1173;-44
2023/01/17 09:30:29;;;;;;;;;;;;;;;15.66;49.51;99768.44;4978700;28;1065;-50
2023/01/17 09:32:55;;;;;;;;;;;;;;;15.31;49.37;99767.72;4965870;28;1054;-46
2023/01/17 09:35:20;;;;;;;;;;;;;;;15.19;48.74;99759.06;4968002;28;1164;-44
2023/01/17 09:37:49;;;;;;;;;;;;;;;15.02;48.33;99763.06;4975335;28;861;-45
2023/01/17 09:40:18;;;;;;;;;;;;;;;16.12;48.46;99779.97;4978286;28;1105;-42
2023/01/17 09:42:44;;;;;;;;;;;;;;;15.37;49.32;99780.25;4980054;28;1976;-43
2023/01/17 09:45:13;;;;;;;;;;;;;;;15.25;49.12;99771.63;4977924;28;1111;-46
2023/01/17 09:47:40;;;;;;;;;;;;;;;15.85;49.09;99767.69;4974688;28;1101;-48
2023/01/17 09:50:26;;;;;;;;;;;;;;;15.35;49.43;99770.72;4943562;29;1247;-47
2023/01/17 09:52:59;;;;;;;;;;;;;;;15.88;49.09;99767.13;4958083;28;1402;-47
2023/01/17 09:55:24;;;;;;;;;;;;;;;15.58;49.82;99766.34;4968689;28;979;-43
2023/01/17 09:57:56;;;;;;;;;;;;;;;15.50;49.17;99769.72;4941932;29;1273;-48
2023/01/17 10:00:43;;;;;;;;;;;;;;;16.53;48.85;99768.41;4963136;28;1022;-45
2023/01/17 10:03:12;;;;;;;;;;;;;;;15.69;49.82;99762.38;4948195;28;1973;-43
2023/01/17 10:05:57;;;;;;;;;;;;;;;15.64;49.59;99778.88;4959151;28;1090;-46
2023/01/17 10:08:42;;;;;;;;;;;;;;;15.97;50.20;99768.09;4939868;28;1251;-46
2023/01/17 10:11:13;;;;;;;;;;;;;;;15.66;49.52;99775.84;4967234;28;1010;-45
2023/01/17 10:13:45;;;;;;;;;;;;;;;15.50;48.66;99773.28;4958202;28;1035;-52
2023/01/17 10:16:13;;;;;;;;;;;;;;;16.15;49.38;99762.94;4941604;29;1369;-47
2023/01/17 10:18:56;;;;;;;;;;;;;;;15.90;50.25;99764.91;4958933;29;1125;-46
2023/01/17 10:21:25;;;;;;;;;;;;;;;15.38;50.12;99776.41;4957843;28;1414;-46
2023/01/17 10:24:02;;;;;;;;;;;;;;;15.43;48.95;99769.25;4944821;29;1911;-42
2023/01/17 10:26:27;;;;;;;;;;;;;;;15.28;48.69;99759.25;4955501;29;1245;-46
2023/01/17 10:28:54;;;;;;;;;;;;;;;15.59;49.07;99746.06;4955125;28;1528;-49
2023/01/17 10:31:24;;;;;;;;;;;;;;;15.65;49.75;99744.88;4957794;28;1313;-52
2023/01/17 10:33:51;;;;;;;;;;;;;;;15.33;49.36;99740.88;4957122;28;1362;-46
2023/01/17 10:36:24;;;;;;;;;;;;;;;16.57;49.11;99751.06;4956292;28;1227;-45
2023/01/17 10:38:50;;;;;;;;;;;;;;;15.71;50.12;99737.41;4957953;29;1051;-45
2023/01/17 10:41:48;;;;;;;;;;;;;;;16.25;49.93;99733.41;4940269;29;1229;-47
2023/01/17 10:44:20;;;;;;;;;;;;;;;16.03;50.45;99742.25;4935038;29;1985;-44
2023/01/17 10:46:54;;;;;;;;;;;;;;;15.82;49.67;99735.38;4957588;28;1238;-46
2023/01/17 10:49:23;;;;;;;;;;;;;;;15.61;49.48;99734.81;4957201;28;1241;-45
2023/01/17 10:51:58;;;;;;;;;;;;;;;16.95;49.42;99728.22;4950633;29;1054;-41
2023/01/17 10:54:34;;;;;;;;;;;;;;;16.02;50.17;99720.59;4969706;28;919;-44
2023/01/17 10:57:00;;;;;;;;;;;;;;;15.79;49.47;99730.47;4956267;28;1228;-45
2023/01/17 10:59:32;;;;;;;;;;;;;;;15.60;49.16;99716.72;4954854;28;1584;-43
2023/01/17 11:01:58;;;;;;;;;;;;;;;15.50;48.40;99728.63;4967829;28;1097;-47
2023/01/17 11:04:29;;;;;;;;;;;;;;;15.44;47.81;99724.31;4958429;28;1906;-48
2023/01/17 11:07:13;;;;;;;;;;;;;;;15.34;47.78;99720.56;4958008;28;1077;-51
2023/01/17 11:09:39;;;;;;;;;;;;;;;16.57;48.75;99711.81;4960474;28;1141;-45
2023/01/17 11:12:05;;;;;;;;;;;;;;;15.71;50.07;99719.06;4955831;28;1544;-45
2023/01/17 11:14:30;;;;;;;;;;;;;;;15.53;49.29;99717.09;4961215;28;988;-47
2023/01/17 11:17:03;;;;;;;;;;;;;;;15.31;48.88;99712.13;4957748;28;1268;-46
2023/01/17 11:19:30;;;;;;;;;;;;;;;15.13;48.34;99697.25;4940925;29;1046;-50
2023/01/17 11:22:00;;;;;;;;;;;;;;;15.45;48.49;99710.31;4940455;29;1220;-48
2023/01/17 11:24:39;;;;;;;;;;;;;;;16.08;49.47;99712.00;4955016;28;1975;-47
2023/01/17 11:27:05;;;;;;;;;;;;;;;15.58;49.43;99700.56;4957760;28;949;-47
2023/01/17 11:29:30;;;;;;;;;;;;;;;16.01;49.62;99695.09;4958198;28;1172;-48
2023/01/17 11:31:56;;;;;;;;;;;;;;;15.80;50.04;99721.97;4957736;28;1155;-48
2023/01/17 11:34:25;;;;;;;;;;;;;;;15.54;49.14;99708.56;4957730;28;1458;-45
2023/01/17 11:37:09;;;;;;;;;;;;;;;15.40;48.60;99718.59;4959995;28;1083;-51
2023/01/17 11:39:35;;;;;;;;;;;;;;;16.22;49.07;99714.00;4961901;28;1181;-49
2023/01/17 11:42:00;;;;;;;;;;;;;;;15.54;49.68;99713.22;4957187;28;1263;-47
2023/01/17 11:44:27;;;;;;;;;;;;;;;16.14;49.12;99699.03;4974624;28;1902;-51
2023/01/17 11:47:07;;;;;;;;;;;;;;;15.95;49.74;99701.78;4961265;29;1213;-46
2023/01/17 11:49:32;;;;;;;;;;;;;;;15.65;49.12;99703.78;4963131;28;1098;-48
2023/01/17 11:51:57;;;;;;;;;;;;;;;15.39;48.77;99706.81;4961669;28;1089;-49
2023/01/17 11:54:27;;;;;;;;;;;;;;;15.84;49.01;99698.34;4959449;28;1160;-49
2023/01/17 11:56:56;;;;;;;;;;;;;;;15.95;49.76;99700.94;4955165;29;1062;-45
2023/01/17 11:59:32;;;;;;;;;;;;;;;15.53;49.49;99695.19;4949081;29;1082;-50
2023/01/17 12:02:16;;;;;;;;;;;;;;;15.33;48.70;99699.78;4967904;28;1447;-51
2023/01/17 12:04:41;;;;;;;;;;;;;;;16.00;49.08;99693.47;4960883;28;1906;-50
2023/01/17 12:07:17;;;;;;;;;;;;;;;15.68;49.01;99691.41;4961424;28;1165;-53
2023/01/17 12:10:01;;;;;;;;;;;;;;;17.36;48.09;99688.19;4946956;28;1213;-50
2023/01/17 12:15:37;;;;;;;;;;;;;;;15.84;49.24;99692.06;4944822;28;1354;-53
2023/01/17 12:18:07;;;;;;;;;;;;;;;15.64;48.77;99684.88;4955064;28;1066;-45
2023/01/17 12:20:46;;;;;;;;;;;;;;;15.47;48.39;99690.84;4960716;28;1181;-49
2023/01/17 12:23:15;;;;;;;;;;;;;;;15.35;48.12;99704.97;4944152;29;1910;-50
2023/01/17 12:26:19;;;;;;;;;;;;;;;15.31;47.49;99696.50;4966893;28;1113;-47
2023/01/17 12:28:53;;;;;;;;;;;;;;;15.57;47.91;99687.97;4911687;29;1141;-47
2023/01/17 12:31:27;;;;;;;;;;;;;;;15.70;49.00;99695.50;4903490;29;1231;-44
2023/01/17 12:33:58;;;;;;;;;;;;;;;15.39;48.80;99698.59;4938759;29;1218;-50
2023/01/17 12:36:24;;;;;;;;;;;;;;;15.24;48.14;99693.31;4960614;29;1234;-42
2023/01/17 12:38:49;;;;;;;;;;;;;;;15.20;47.68;99690.31;4960164;28;1044;-49
2023/01/17 12:41:15;;;;;;;;;;;;;;;15.99;48.32;99686.38;4960097;28;1241;-52
2023/01/17 12:43:40;;;;;;;;;;;;;;;15.42;49.39;99682.69;4961526;28;1910;-47
2023/01/17 12:46:12;;;;;;;;;;;;;;;15.21;48.92;99675.53;4959877;28;1181;-49
2023/01/17 12:48:38;;;;;;;;;;;;;;;15.14;48.19;99688.75;4959971;28;1269;-44
2023/01/17 12:51:17;;;;;;;;;;;;;;;16.07;48.37;99682.97;4964750;28;1242;-49
2023/01/17 12:53:46;;;;;;;;;;;;;;;15.50;49.52;99691.09;4973354;28;1149;-46
2023/01/17 12:56:23;;;;;;;;;;;;;;;15.17;49.19;99687.38;4942000;29;908;-50
2023/01/17 12:58:55;;;;;;;;;;;;;;;15.68;48.86;99678.53;4963670;28;1110;-47
2023/01/17 13:01:26;;;;;;;;;;;;;;;15.67;49.57;99679.63;4970621;28;1145;-46
2023/01/17 13:03:55;;;;;;;;;;;;;;;15.44;49.02;99694.19;4960112;28;1981;-47
2023/01/17 13:06:23;;;;;;;;;;;;;;;16.30;48.77;99693.31;4960276;28;1253;-48
2023/01/17 13:08:49;;;;;;;;;;;;;;;15.55;49.57;99695.69;4960388;28;1193;-46
2023/01/17 13:11:17;;;;;;;;;;;;;;;15.37;48.98;99691.78;4943895;28;1178;-45
2023/01/17 13:13:42;;;;;;;;;;;;;;;15.24;48.61;99704.25;4945954;28;1145;-45
2023/01/17 13:16:13;;;;;;;;;;;;;;;15.16;48.04;99700.22;4965440;28;1084;-47
2023/01/17 13:18:47;;;;;;;;;;;;;;;16.40;48.35;99704.94;4959783;28;1255;-50
2023/01/17 13:21:31;;;;;;;;;;;;;;;15.46;49.67;99705.66;4960277;28;983;-50
2023/01/17 13:24:04;;;;;;;;;;;;;;;15.31;48.58;99710.19;4959371;28;1975;-45
2023/01/17 13:26:38;;;;;;;;;;;;;;;15.20;48.35;99701.28;4967476;28;1041;-48
2023/01/17 13:29:03;;;;;;;;;;;;;;;15.89;48.83;99700.19;4960370;28;1225;-48
2023/01/17 13:31:31;;;;;;;;;;;;;;;15.35;49.16;99702.22;4959922;28;1054;-44
2023/01/17 13:33:57;;;;;;;;;;;;;;;15.27;48.98;99697.38;4959480;28;959;-50
2023/01/17 13:36:43;;;;;;;;;;;;;;;15.93;48.95;99690.28;4959336;28;1125;-53
2023/01/17 13:39:11;;;;;;;;;;;;;;;15.30;49.54;99691.31;4953961;28;1257;-50
2023/01/17 13:41:49;;;;;;;;;;;;;;;15.24;48.58;99682.34;4957957;28;1227;-45
2023/01/17 13:44:21;;;;;;;;;;;;;;;16.12;48.22;99697.69;4957088;29;1976;-45
2023/01/17 13:46:59;;;;;;;;;;;;;;;15.44;49.02;99692.25;4959822;28;1206;-48
2023/01/17 13:49:25;;;;;;;;;;;;;;;15.23;48.59;99702.63;4959105;28;1216;-50
2023/01/17 13:52:09;;;;;;;;;;;;;;;15.63;48.45;99703.25;4971382;28;999;-45
2023/01/17 13:55:01;;;;;;;;;;;;;;;15.50;49.19;99709.44;4959074;28;1119;-50
2023/01/17 13:57:28;;;;;;;;;;;;;;;15.40;48.98;99713.09;4957612;28;1548;-46
2023/01/17 13:59:54;;;;;;;;;;;;;;;16.20;48.69;99724.44;4959433;28;1042;-44
2023/01/17 14:02:32;;;;;;;;;;;;;;;15.65;49.37;99722.94;4964100;28;1086;-45
2023/01/17 14:05:09;;;;;;;;;;;;;;;17.38;47.67;99719.75;4946369;28;1902;-46
2023/01/17 14:07:39;;;;;;;;;;;;;;;16.16;49.96;99713.28;4959254;28;1073;-44
2023/01/17 14:10:23;;;;;;;;;;;;;;;15.87;49.38;99727.91;4948145;28;1126;-46
2023/01/17 14:12:49;;;;;;;;;;;;;;;15.56;48.63;99730.19;4962881;28;1072;-44
2023/01/17 14:15:19;;;;;;;;;;;;;;;15.43;48.07;99722.66;4961034;28;1161;-44
2023/01/17 14:17:46;;;;;;;;;;;;;;;15.42;48.18;99726.50;4941345;28;1067;-41
2023/01/17 14:20:14;;;;;;;;;;;;;;;16.35;48.79;99726.16;4942079;29;1081;-40
2023/01/17 14:22:53;;;;;;;;;;;;;;;16.02;49.53;99726.91;4956975;28;1412;-45
2023/01/17 14:25:19;;;;;;;;;;;;;;;15.73;49.00;99716.81;4958216;28;1482;-48
2023/01/17 14:27:52;;;;;;;;;;;;;;;16.54;49.60;99728.91;4942123;28;897;-46
2023/01/17 14:30:19;;;;;;;;;;;;;;;15.86;49.77;99737.25;4958625;28;1094;-45